sensor_id;sensor_type;location;lat;lon;timestamp;pressure;altitude;pressure_sealevel;temperature;humidity
61506;BME280;47366;51.916;4.574;2023-03-19T00:00:12;101120.69;;;10.93;93.35
61506;BME280;47366;51.916;4.574;2023-03-19T00:02:38;101115.25;;;10.93;92.33
61506;BME280;47366;51.916;4.574;2023-03-19T00:05:04;101118.03;;;10.91;92.88
61506;BME280;47366;51.916;4.574;2023-03-19T00:07:29;101128.03;;;10.91;93.26
61506;BME280;47366;51.916;4.574;2023-03-19T00:09:55;101121.03;;;10.87;93.01
61506;BME280;47366;51.916;4.574;2023-03-19T00:12:20;101121.22;;;10.83;93.53
61506;BME280;47366;51.916;4.574;2023-03-19T00:14:46;101126.63;;;10.83;92.39
61506;BME280;47366;51.916;4.574;2023-03-19T00:17:11;101136.59;;;10.83;94.43
61506;BME280;47366;51.916;4.574;2023-03-19T00:19:37;101135.63;;;10.84;92.79
61506;BME280;47366;51.916;4.574;2023-03-19T00:22:03;101139.91;;;10.88;92.43
61506;BME280;47366;51.916;4.574;2023-03-19T00:24:28;101136.41;;;10.86;92.83
61506;BME280;47366;51.916;4.574;2023-03-19T00:26:54;101133.63;;;10.88;92.37
61506;BME280;47366;51.916;4.574;2023-03-19T00:29:20;101134.56;;;10.87;92.70
61506;BME280;47366;51.916;4.574;2023-03-19T00:31:45;101134.75;;;10.83;92.50
61506;BME280;47366;51.916;4.574;2023-03-19T00:34:11;101140.09;;;10.85;92.57
61506;BME280;47366;51.916;4.574;2023-03-19T00:36:38;101135.81;;;10.81;92.63
61506;BME280;47366;51.916;4.574;2023-03-19T00:39:04;101150.34;;;10.80;92.48
61506;BME280;47366;51.916;4.574;2023-03-19T00:41:29;101145.97;;;10.77;92.11
61506;BME280;47366;51.916;4.574;2023-03-19T00:43:56;101152.06;;;10.81;92.75
61506;BME280;47366;51.916;4.574;2023-03-19T00:46:22;101154.19;;;10.76;92.60
61506;BME280;47366;51.916;4.574;2023-03-19T00:48:48;101150.59;;;10.75;92.05
61506;BME280;47366;51.916;4.574;2023-03-19T00:51:15;101153.31;;;10.75;92.07
61506;BME280;47366;51.916;4.574;2023-03-19T00:53:42;101152.41;;;10.75;92.23
61506;BME280;47366;51.916;4.574;2023-03-19T00:56:09;101149.03;;;10.71;93.04
61506;BME280;47366;51.916;4.574;2023-03-19T00:58:35;101152.53;;;10.73;92.26
61506;BME280;47366;51.916;4.574;2023-03-19T01:01:09;101150.00;;;10.70;92.26
61506;BME280;47366;51.916;4.574;2023-03-19T01:03:35;101158.81;;;10.74;92.40
61506;BME280;47366;51.916;4.574;2023-03-19T01:06:01;101160.38;;;10.78;92.31
61506;BME280;47366;51.916;4.574;2023-03-19T01:08:27;101154.97;;;10.78;92.19
61506;BME280;47366;51.916;4.574;2023-03-19T01:10:53;101157.84;;;10.75;92.09
61506;BME280;47366;51.916;4.574;2023-03-19T01:13:19;101149.69;;;10.75;91.76
61506;BME280;47366;51.916;4.574;2023-03-19T01:15:44;101146.25;;;10.73;91.51
61506;BME280;47366;51.916;4.574;2023-03-19T01:18:10;101148.94;;;10.73;91.35
61506;BME280;47366;51.916;4.574;2023-03-19T01:20:38;101162.31;;;10.76;92.16
61506;BME280;47366;51.916;4.574;2023-03-19T01:23:05;101148.56;;;10.79;91.93
61506;BME280;47366;51.916;4.574;2023-03-19T01:25:31;101147.78;;;10.77;91.63
61506;BME280;47366;51.916;4.574;2023-03-19T01:27:57;101154.84;;;10.79;91.77
61506;BME280;47366;51.916;4.574;2023-03-19T01:30:22;101151.66;;;10.73;92.16
61506;BME280;47366;51.916;4.574;2023-03-19T01:32:48;101153.56;;;10.71;92.06
61506;BME280;47366;51.916;4.574;2023-03-19T01:35:14;101158.81;;;10.74;91.81
61506;BME280;47366;51.916;4.574;2023-03-19T01:37:40;101156.28;;;10.71;92.20
61506;BME280;47366;51.916;4.574;2023-03-19T01:40:06;101153.66;;;10.69;91.15
61506;BME280;47366;51.916;4.574;2023-03-19T01:42:33;101153.91;;;10.65;91.80
61506;BME280;47366;51.916;4.574;2023-03-19T01:45:01;101154.16;;;10.60;92.26
61506;BME280;47366;51.916;4.574;2023-03-19T01:47:34;101154.34;;;10.57;91.81
61506;BME280;47366;51.916;4.574;2023-03-19T01:50:00;101163.47;;;10.56;92.15
61506;BME280;47366;51.916;4.574;2023-03-19T01:52:30;101163.47;;;10.56;92.00
61506;BME280;47366;51.916;4.574;2023-03-19T01:54:58;101169.19;;;10.50;91.45
61506;BME280;47366;51.916;4.574;2023-03-19T01:57:27;101169.53;;;10.44;91.89
61506;BME280;47366;51.916;4.574;2023-03-19T01:59:55;101166.81;;;10.44;92.21
61506;BME280;47366;51.916;4.574;2023-03-19T02:05:07;101161.66;;;10.39;92.64
61506;BME280;47366;51.916;4.574;2023-03-19T02:07:35;101162.63;;;10.38;92.62
61506;BME280;47366;51.916;4.574;2023-03-19T02:10:04;101159.13;;;10.36;92.09
61506;BME280;47366;51.916;4.574;2023-03-19T02:12:31;101166.47;;;10.34;92.14
61506;BME280;47366;51.916;4.574;2023-03-19T02:14:56;101171.25;;;10.29;92.22
61506;BME280;47366;51.916;4.574;2023-03-19T02:17:22;101173.97;;;10.29;93.35
61506;BME280;47366;51.916;4.574;2023-03-19T02:20:03;101174.97;;;10.26;92.38
61506;BME280;47366;51.916;4.574;2023-03-19T02:22:32;101168.47;;;10.30;92.90
61506;BME280;47366;51.916;4.574;2023-03-19T02:25:08;101165.03;;;10.27;92.66
61506;BME280;47366;51.916;4.574;2023-03-19T02:27:35;101163.38;;;10.24;91.95
61506;BME280;47366;51.916;4.574;2023-03-19T02:30:17;101178.53;;;10.28;92.67
61506;BME280;47366;51.916;4.574;2023-03-19T02:32:42;101177.53;;;10.29;92.50
61506;BME280;47366;51.916;4.574;2023-03-19T02:35:08;101167.69;;;10.28;92.00
61506;BME280;47366;51.916;4.574;2023-03-19T02:37:34;101171.25;;;10.29;92.20
61506;BME280;47366;51.916;4.574;2023-03-19T02:42:32;101175.41;;;10.18;92.04
61506;BME280;47366;51.916;4.574;2023-03-19T02:44:57;101178.19;;;10.17;92.47
61506;BME280;47366;51.916;4.574;2023-03-19T02:47:24;101169.19;;;10.16;91.87
61506;BME280;47366;51.916;4.574;2023-03-19T02:49:50;101172.97;;;10.14;92.15
61506;BME280;47366;51.916;4.574;2023-03-19T02:52:15;101174.25;;;10.07;92.08
61506;BME280;47366;51.916;4.574;2023-03-19T02:54:41;101184.03;;;10.09;92.17
61506;BME280;47366;51.916;4.574;2023-03-19T02:57:06;101188.03;;;10.02;91.74
61506;BME280;47366;51.916;4.574;2023-03-19T02:59:32;101181.13;;;9.96;91.86
61506;BME280;47366;51.916;4.574;2023-03-19T03:01:57;101177.44;;;9.97;92.19
61506;BME280;47366;51.916;4.574;2023-03-19T03:04:22;101165.75;;;9.97;92.31
61506;BME280;47366;51.916;4.574;2023-03-19T03:06:48;101178.25;;;9.99;91.92
61506;BME280;47366;51.916;4.574;2023-03-19T03:09:13;101174.81;;;9.96;91.70
61506;BME280;47366;51.916;4.574;2023-03-19T03:11:39;101172.44;;;9.90;92.06
61506;BME280;47366;51.916;4.574;2023-03-19T03:14:05;101175.47;;;9.84;92.89
61506;BME280;47366;51.916;4.574;2023-03-19T03:16:31;101176.75;;;9.76;92.39
61506;BME280;47366;51.916;4.574;2023-03-19T03:18:57;101176.84;;;9.75;92.44
61506;BME280;47366;51.916;4.574;2023-03-19T03:21:23;101178.84;;;9.71;91.90
61506;BME280;47366;51.916;4.574;2023-03-19T03:23:48;101181.53;;;9.71;92.75
61506;BME280;47366;51.916;4.574;2023-03-19T03:26:14;101180.84;;;9.68;92.00
61506;BME280;47366;51.916;4.574;2023-03-19T03:28:39;101181.84;;;9.65;92.91
61506;BME280;47366;51.916;4.574;2023-03-19T03:31:05;101189.03;;;9.66;92.79
61506;BME280;47366;51.916;4.574;2023-03-19T03:33:30;101192.03;;;9.60;92.88
61506;BME280;47366;51.916;4.574;2023-03-19T03:35:57;101190.53;;;9.54;92.36
61506;BME280;47366;51.916;4.574;2023-03-19T03:38:22;101185.44;;;9.48;93.03
61506;BME280;47366;51.916;4.574;2023-03-19T03:40:51;101180.94;;;9.49;92.46
61506;BME280;47366;51.916;4.574;2023-03-19T03:43:17;101179.31;;;9.45;92.73
61506;BME280;47366;51.916;4.574;2023-03-19T03:45:44;101179.56;;;9.40;92.07
61506;BME280;47366;51.916;4.574;2023-03-19T03:48:09;101181.16;;;9.44;92.83
61506;BME280;47366;51.916;4.574;2023-03-19T03:50:35;101175.66;;;9.46;92.69
61506;BME280;47366;51.916;4.574;2023-03-19T03:53:00;101168.34;;;9.48;92.50
61506;BME280;47366;51.916;4.574;2023-03-19T03:55:26;101183.69;;;9.47;92.54
61506;BME280;47366;51.916;4.574;2023-03-19T03:57:52;101185.75;;;9.42;93.08
61506;BME280;47366;51.916;4.574;2023-03-19T04:00:18;101193.94;;;9.41;92.75
61506;BME280;47366;51.916;4.574;2023-03-19T04:02:44;101188.63;;;9.39;92.51
61506;BME280;47366;51.916;4.574;2023-03-19T04:05:10;101190.38;;;9.40;93.37
61506;BME280;47366;51.916;4.574;2023-03-19T04:07:36;101182.97;;;9.44;93.09
61506;BME280;47366;51.916;4.574;2023-03-19T04:10:02;101193.53;;;9.48;92.46
61506;BME280;47366;51.916;4.574;2023-03-19T04:12:27;101197.78;;;9.54;93.26
61506;BME280;47366;51.916;4.574;2023-03-19T04:14:52;101196.13;;;9.51;92.25
61506;BME280;47366;51.916;4.574;2023-03-19T04:17:18;101194.44;;;9.49;92.02
61506;BME280;47366;51.916;4.574;2023-03-19T04:19:43;101190.84;;;9.48;92.36
61506;BME280;47366;51.916;4.574;2023-03-19T04:22:08;101196.97;;;9.52;92.16
61506;BME280;47366;51.916;4.574;2023-03-19T04:24:34;101190.84;;;9.48;91.93
61506;BME280;47366;51.916;4.574;2023-03-19T04:26:59;101190.06;;;9.46;92.47
61506;BME280;47366;51.916;4.574;2023-03-19T04:29:25;101199.34;;;9.41;91.53
61506;BME280;47366;51.916;4.574;2023-03-19T04:31:51;101199.91;;;9.30;92.35
61506;BME280;47366;51.916;4.574;2023-03-19T04:34:17;101205.31;;;9.30;92.23
61506;BME280;47366;51.916;4.574;2023-03-19T04:36:42;101202.03;;;9.23;92.91
61506;BME280;47366;51.916;4.574;2023-03-19T04:39:08;101209.34;;;9.21;92.44
61506;BME280;47366;51.916;4.574;2023-03-19T04:41:34;101211.56;;;9.13;92.25
61506;BME280;47366;51.916;4.574;2023-03-19T04:43:59;101208.34;;;9.05;92.93
61506;BME280;47366;51.916;4.574;2023-03-19T04:46:25;101212.91;;;9.04;92.67
61506;BME280;47366;51.916;4.574;2023-03-19T04:48:50;101216.53;;;9.03;93.09
61506;BME280;47366;51.916;4.574;2023-03-19T04:51:16;101213.59;;;9.08;93.46
61506;BME280;47366;51.916;4.574;2023-03-19T04:53:41;101226.59;;;9.19;93.57
61506;BME280;47366;51.916;4.574;2023-03-19T04:56:07;101224.28;;;9.11;92.90
61506;BME280;47366;51.916;4.574;2023-03-19T04:58:33;101232.16;;;9.16;92.58
61506;BME280;47366;51.916;4.574;2023-03-19T05:00:58;101223.63;;;9.06;93.30
61506;BME280;47366;51.916;4.574;2023-03-19T05:03:24;101229.53;;;9.14;93.68
61506;BME280;47366;51.916;4.574;2023-03-19T05:05:52;101240.03;;;9.20;93.05
61506;BME280;47366;51.916;4.574;2023-03-19T05:08:18;101234.47;;;9.23;93.07
61506;BME280;47366;51.916;4.574;2023-03-19T05:10:43;101239.88;;;9.23;92.67
61506;BME280;47366;51.916;4.574;2023-03-19T05:13:09;101231.78;;;9.23;92.88
61506;BME280;47366;51.916;4.574;2023-03-19T05:15:34;101233.50;;;9.24;92.87
61506;BME280;47366;51.916;4.574;2023-03-19T05:17:59;101244.50;;;9.21;93.08
61506;BME280;47366;51.916;4.574;2023-03-19T05:20:25;101242.88;;;9.17;92.71
61506;BME280;47366;51.916;4.574;2023-03-19T05:22:51;101252.59;;;9.21;93.00
61506;BME280;47366;51.916;4.574;2023-03-19T05:25:17;101248.94;;;9.22;93.44
61506;BME280;47366;51.916;4.574;2023-03-19T05:27:43;101265.03;;;9.06;92.92
61506;BME280;47366;51.916;4.574;2023-03-19T05:30:09;101261.00;;;8.96;92.64
61506;BME280;47366;51.916;4.574;2023-03-19T05:32:35;101266.78;;;8.88;93.23
61506;BME280;47366;51.916;4.574;2023-03-19T05:35:01;101276.28;;;8.78;93.09
61506;BME280;47366;51.916;4.574;2023-03-19T05:37:28;101271.97;;;8.74;94.10
61506;BME280;47366;51.916;4.574;2023-03-19T05:39:53;101277.53;;;8.71;94.37
61506;BME280;47366;51.916;4.574;2023-03-19T05:42:18;101274.00;;;8.69;93.85
61506;BME280;47366;51.916;4.574;2023-03-19T05:44:44;101283.19;;;8.65;94.60
61506;BME280;47366;51.916;4.574;2023-03-19T05:47:10;101280.81;;;8.59;94.75
61506;BME280;47366;51.916;4.574;2023-03-19T05:49:36;101287.94;;;8.60;94.79
61506;BME280;47366;51.916;4.574;2023-03-19T05:52:02;101289.72;;;8.61;94.22
61506;BME280;47366;51.916;4.574;2023-03-19T05:54:27;101298.03;;;8.56;94.38
61506;BME280;47366;51.916;4.574;2023-03-19T05:56:53;101299.97;;;8.53;94.02
61506;BME280;47366;51.916;4.574;2023-03-19T05:59:19;101299.09;;;8.52;94.53
61506;BME280;47366;51.916;4.574;2023-03-19T06:01:44;101289.25;;;8.51;95.52
61506;BME280;47366;51.916;4.574;2023-03-19T06:04:09;101294.22;;;8.60;95.35
61506;BME280;47366;51.916;4.574;2023-03-19T06:06:35;101280.66;;;8.62;94.61
61506;BME280;47366;51.916;4.574;2023-03-19T06:09:00;101285.25;;;8.60;95.18
61506;BME280;47366;51.916;4.574;2023-03-19T06:11:26;101284.38;;;8.59;95.58
61506;BME280;47366;51.916;4.574;2023-03-19T06:13:51;101295.22;;;8.58;95.90
61506;BME280;47366;51.916;4.574;2023-03-19T06:16:16;101301.00;;;8.50;95.39
61506;BME280;47366;51.916;4.574;2023-03-19T06:18:42;101296.81;;;8.43;95.94
61506;BME280;47366;51.916;4.574;2023-03-19T06:21:07;101305.72;;;8.45;96.21
61506;BME280;47366;51.916;4.574;2023-03-19T06:23:33;101301.34;;;8.42;97.39
61506;BME280;47366;51.916;4.574;2023-03-19T06:25:58;101315.34;;;8.50;96.68
61506;BME280;47366;51.916;4.574;2023-03-19T06:28:24;101314.28;;;8.55;96.53
61506;BME280;47366;51.916;4.574;2023-03-19T06:30:49;101312.41;;;8.57;96.45
61506;BME280;47366;51.916;4.574;2023-03-19T06:33:14;101314.94;;;8.60;96.37
61506;BME280;47366;51.916;4.574;2023-03-19T06:35:40;101314.13;;;8.58;95.62
61506;BME280;47366;51.916;4.574;2023-03-19T06:38:06;101324.28;;;8.53;96.36
61506;BME280;47366;51.916;4.574;2023-03-19T06:40:31;101324.22;;;8.54;95.90
61506;BME280;47366;51.916;4.574;2023-03-19T06:42:58;101328.59;;;8.57;96.21
61506;BME280;47366;51.916;4.574;2023-03-19T06:45:23;101329.19;;;8.63;96.21
61506;BME280;47366;51.916;4.574;2023-03-19T06:47:48;101330.94;;;8.64;96.10
61506;BME280;47366;51.916;4.574;2023-03-19T06:50:15;101326.28;;;8.68;95.57
61506;BME280;47366;51.916;4.574;2023-03-19T06:52:42;101340.44;;;8.73;95.29
61506;BME280;47366;51.916;4.574;2023-03-19T06:55:08;101336.78;;;8.74;95.59
61506;BME280;47366;51.916;4.574;2023-03-19T06:57:34;101341.13;;;8.78;95.27
61506;BME280;47366;51.916;4.574;2023-03-19T07:00:00;101351.09;;;8.76;95.38
61506;BME280;47366;51.916;4.574;2023-03-19T07:02:25;101344.69;;;8.79;95.38
61506;BME280;47366;51.916;4.574;2023-03-19T07:04:51;101354.97;;;8.70;95.97
61506;BME280;47366;51.916;4.574;2023-03-19T07:07:17;101357.78;;;8.67;95.81
61506;BME280;47366;51.916;4.574;2023-03-19T07:09:42;101354.22;;;8.67;96.54
61506;BME280;47366;51.916;4.574;2023-03-19T07:12:08;101357.59;;;8.72;96.19
61506;BME280;47366;51.916;4.574;2023-03-19T07:14:33;101361.31;;;8.69;96.80
61506;BME280;47366;51.916;4.574;2023-03-19T07:16:58;101363.09;;;8.70;96.90
61506;BME280;47366;51.916;4.574;2023-03-19T07:19:24;101362.06;;;8.73;96.84
61506;BME280;47366;51.916;4.574;2023-03-19T07:21:50;101360.38;;;8.70;96.03
61506;BME280;47366;51.916;4.574;2023-03-19T07:24:15;101355.03;;;8.69;96.62
61506;BME280;47366;51.916;4.574;2023-03-19T07:26:40;101365.63;;;8.74;96.45
61506;BME280;47366;51.916;4.574;2023-03-19T07:29:08;101365.84;;;8.69;96.75
61506;BME280;47366;51.916;4.574;2023-03-19T07:31:33;101374.81;;;8.69;97.93
61506;BME280;47366;51.916;4.574;2023-03-19T07:33:58;101372.19;;;8.68;97.52
61506;BME280;47366;51.916;4.574;2023-03-19T07:36:24;101377.44;;;8.71;98.22
61506;BME280;47366;51.916;4.574;2023-03-19T07:38:49;101383.72;;;8.71;97.77
61506;BME280;47366;51.916;4.574;2023-03-19T07:41:15;101382.66;;;8.76;97.17
61506;BME280;47366;51.916;4.574;2023-03-19T07:43:40;101380.41;;;8.85;97.00
61506;BME280;47366;51.916;4.574;2023-03-19T07:46:05;101378.66;;;8.84;96.52
61506;BME280;47366;51.916;4.574;2023-03-19T07:48:31;101381.56;;;8.80;97.12
61506;BME280;47366;51.916;4.574;2023-03-19T07:50:57;101398.50;;;8.83;96.76
61506;BME280;47366;51.916;4.574;2023-03-19T07:53:22;101402.00;;;8.85;96.51
61506;BME280;47366;51.916;4.574;2023-03-19T07:55:48;101389.47;;;8.84;96.61
61506;BME280;47366;51.916;4.574;2023-03-19T07:58:13;101398.28;;;8.88;96.08
61506;BME280;47366;51.916;4.574;2023-03-19T08:00:39;101408.22;;;8.87;96.54
61506;BME280;47366;51.916;4.574;2023-03-19T08:03:05;101405.59;;;8.86;95.96
61506;BME280;47366;51.916;4.574;2023-03-19T08:05:30;101407.63;;;8.81;97.41
61506;BME280;47366;51.916;4.574;2023-03-19T08:07:55;101416.69;;;8.80;96.57
61506;BME280;47366;51.916;4.574;2023-03-19T08:10:21;101409.59;;;8.77;97.10
61506;BME280;47366;51.916;4.574;2023-03-19T08:12:46;101422.81;;;8.83;97.68
61506;BME280;47366;51.916;4.574;2023-03-19T08:15:13;101424.34;;;8.89;97.14
61506;BME280;47366;51.916;4.574;2023-03-19T08:17:38;101426.31;;;8.85;96.02
61506;BME280;47366;51.916;4.574;2023-03-19T08:20:09;101427.03;;;8.89;96.62
61506;BME280;47366;51.916;4.574;2023-03-19T08:22:35;101425.09;;;8.92;96.29
61506;BME280;47366;51.916;4.574;2023-03-19T08:25:02;101423.06;;;8.98;96.55
61506;BME280;47366;51.916;4.574;2023-03-19T08:27:28;101425.81;;;8.96;95.84
61506;BME280;47366;51.916;4.574;2023-03-19T08:29:55;101431.97;;;9.00;95.96
61506;BME280;47366;51.916;4.574;2023-03-19T08:32:20;101434.69;;;9.00;95.34
61506;BME280;47366;51.916;4.574;2023-03-19T08:34:45;101438.34;;;8.99;95.84
61506;BME280;47366;51.916;4.574;2023-03-19T08:37:11;101439.94;;;9.03;95.66
61506;BME280;47366;51.916;4.574;2023-03-19T08:39:36;101437.38;;;9.00;96.11
61506;BME280;47366;51.916;4.574;2023-03-19T08:42:01;101442.63;;;9.03;96.36
61506;BME280;47366;51.916;4.574;2023-03-19T08:44:27;101443.25;;;9.09;95.86
61506;BME280;47366;51.916;4.574;2023-03-19T08:46:52;101451.41;;;9.08;96.46
61506;BME280;47366;51.916;4.574;2023-03-19T08:49:18;101454.00;;;9.11;95.48
61506;BME280;47366;51.916;4.574;2023-03-19T08:51:43;101449.66;;;9.07;96.01
61506;BME280;47366;51.916;4.574;2023-03-19T08:54:08;101452.31;;;9.08;96.03
61506;BME280;47366;51.916;4.574;2023-03-19T08:56:35;101459.25;;;9.14;94.80
61506;BME280;47366;51.916;4.574;2023-03-19T08:59:00;101459.03;;;9.19;95.37
61506;BME280;47366;51.916;4.574;2023-03-19T09:01:26;101461.38;;;9.26;95.38
61506;BME280;47366;51.916;4.574;2023-03-19T09:03:51;101449.44;;;9.32;94.69
61506;BME280;47366;51.916;4.574;2023-03-19T09:06:17;101458.09;;;9.39;94.87
61506;BME280;47366;51.916;4.574;2023-03-19T09:08:42;101458.84;;;9.42;94.42
61506;BME280;47366;51.916;4.574;2023-03-19T09:11:08;101459.50;;;9.47;94.30
61506;BME280;47366;51.916;4.574;2023-03-19T09:13:35;101464.84;;;9.49;93.51
61506;BME280;47366;51.916;4.574;2023-03-19T09:16:00;101471.03;;;9.51;93.79
61506;BME280;47366;51.916;4.574;2023-03-19T09:18:26;101471.03;;;9.51;94.56
61506;BME280;47366;51.916;4.574;2023-03-19T09:20:52;101474.72;;;9.50;94.09
61506;BME280;47366;51.916;4.574;2023-03-19T09:23:18;101469.25;;;9.51;93.97
61506;BME280;47366;51.916;4.574;2023-03-19T09:25:43;101479.75;;;9.57;93.89
61506;BME280;47366;51.916;4.574;2023-03-19T09:28:09;101474.34;;;9.57;94.40
61506;BME280;47366;51.916;4.574;2023-03-19T09:30:35;101473.41;;;9.59;94.09
61506;BME280;47366;51.916;4.574;2023-03-19T09:33:00;101477.00;;;9.59;93.43
61506;BME280;47366;51.916;4.574;2023-03-19T09:35:26;101473.25;;;9.62;93.58
61506;BME280;47366;51.916;4.574;2023-03-19T09:37:56;101484.06;;;9.62;93.62
61506;BME280;47366;51.916;4.574;2023-03-19T09:45:34;101496.34;;;9.69;94.00
61506;BME280;47366;51.916;4.574;2023-03-19T09:48:05;101502.47;;;9.72;93.68
61506;BME280;47366;51.916;4.574;2023-03-19T09:50:32;101509.66;;;9.73;93.82
61506;BME280;47366;51.916;4.574;2023-03-19T09:53:19;101513.47;;;9.69;94.09
61506;BME280;47366;51.916;4.574;2023-03-19T09:55:50;101515.34;;;9.67;93.77
61506;BME280;47366;51.916;4.574;2023-03-19T09:58:22;101515.44;;;9.66;93.58
61506;BME280;47366;51.916;4.574;2023-03-19T10:00:52;101522.53;;;9.68;94.17
61506;BME280;47366;51.916;4.574;2023-03-19T10:12:08;101535.91;;;9.71;94.15
61506;BME280;47366;51.916;4.574;2023-03-19T10:17:36;101538.34;;;9.77;93.82
61506;BME280;47366;51.916;4.574;2023-03-19T10:20:12;101540.25;;;9.75;94.48
61506;BME280;47366;51.916;4.574;2023-03-19T10:22:44;101534.00;;;9.73;94.29
61506;BME280;47366;51.916;4.574;2023-03-19T10:25:17;101543.88;;;9.74;94.25
61506;BME280;47366;51.916;4.574;2023-03-19T10:27:45;101552.75;;;9.78;94.23
61506;BME280;47366;51.916;4.574;2023-03-19T10:30:13;101557.34;;;9.76;93.69
61506;BME280;47366;51.916;4.574;2023-03-19T10:32:45;101559.09;;;9.77;93.93
61506;BME280;47366;51.916;4.574;2023-03-19T10:35:23;101552.53;;;9.83;93.84
61506;BME280;47366;51.916;4.574;2023-03-19T10:37:53;101549.72;;;9.84;94.11
61506;BME280;47366;51.916;4.574;2023-03-19T10:40:23;101548.94;;;9.82;94.01
61506;BME280;47366;51.916;4.574;2023-03-19T10:43:04;101562.00;;;9.91;93.57
61506;BME280;47366;51.916;4.574;2023-03-19T10:45:32;101566.44;;;9.94;93.31
61506;BME280;47366;51.916;4.574;2023-03-19T10:48:00;101562.25;;;9.87;94.22
61506;BME280;47366;51.916;4.574;2023-03-19T10:50:47;101567.53;;;9.90;93.61
61506;BME280;47366;51.916;4.574;2023-03-19T10:58:34;101568.03;;;9.98;93.53
61506;BME280;47366;51.916;4.574;2023-03-19T11:01:06;101570.34;;;10.06;93.15
61506;BME280;47366;51.916;4.574;2023-03-19T11:03:34;101567.59;;;10.07;93.18
61506;BME280;47366;51.916;4.574;2023-03-19T11:08:36;101567.31;;;10.13;92.58
61506;BME280;47366;51.916;4.574;2023-03-19T11:11:02;101572.56;;;10.16;92.64
61506;BME280;47366;51.916;4.574;2023-03-19T11:13:28;101563.25;;;10.22;93.03
61506;BME280;47366;51.916;4.574;2023-03-19T11:15:58;101569.31;;;10.27;92.31
61506;BME280;47366;51.916;4.574;2023-03-19T11:18:28;101572.00;;;10.29;92.68
61506;BME280;47366;51.916;4.574;2023-03-19T11:21:04;101568.25;;;10.31;92.20
61506;BME280;47366;51.916;4.574;2023-03-19T11:23:37;101574.53;;;10.32;92.23
61506;BME280;47366;51.916;4.574;2023-03-19T11:26:03;101575.13;;;10.38;92.22
61506;BME280;47366;51.916;4.574;2023-03-19T11:28:30;101574.75;;;10.46;91.67
61506;BME280;47366;51.916;4.574;2023-03-19T11:36:23;101575.31;;;10.53;91.83
61506;BME280;47366;51.916;4.574;2023-03-19T11:39:13;101576.34;;;10.50;92.47
61506;BME280;47366;51.916;4.574;2023-03-19T11:47:12;101575.91;;;10.59;92.17
61506;BME280;47366;51.916;4.574;2023-03-19T11:50:02;101575.44;;;10.69;91.75
61506;BME280;47366;51.916;4.574;2023-03-19T11:55:20;101577.94;;;10.73;91.40
61506;BME280;47366;51.916;4.574;2023-03-19T12:01:05;101579.53;;;10.77;91.57
61506;BME280;47366;51.916;4.574;2023-03-19T12:04:00;101576.91;;;10.93;91.35
61506;BME280;47366;51.916;4.574;2023-03-19T12:12:02;101573.84;;;11.85;88.06
61506;BME280;47366;51.916;4.574;2023-03-19T12:14:36;101574.00;;;11.82;87.60
61506;BME280;47366;51.916;4.574;2023-03-19T12:20:12;101578.63;;;11.97;86.84
61506;BME280;47366;51.916;4.574;2023-03-19T12:22:56;101576.53;;;12.02;86.22
61506;BME280;47366;51.916;4.574;2023-03-19T12:36:01;101563.94;;;13.09;80.65
61506;BME280;47366;51.916;4.574;2023-03-19T12:41:09;101551.88;;;14.01;77.16
61506;BME280;47366;51.916;4.574;2023-03-19T12:46:26;101573.72;;;14.42;72.92
61506;BME280;47366;51.916;4.574;2023-03-19T12:49:05;101570.25;;;14.12;73.31
61506;BME280;47366;51.916;4.574;2023-03-19T12:51:35;101573.81;;;13.85;77.00
61506;BME280;47366;51.916;4.574;2023-03-19T12:54:20;101576.31;;;13.74;77.88
61506;BME280;47366;51.916;4.574;2023-03-19T13:01:57;101579.69;;;13.49;78.81
61506;BME280;47366;51.916;4.574;2023-03-19T13:04:28;101580.16;;;13.41;79.25
61506;BME280;47366;51.916;4.574;2023-03-19T13:07:00;101592.84;;;13.26;78.98
61506;BME280;47366;51.916;4.574;2023-03-19T13:09:32;101603.41;;;13.16;79.97
61506;BME280;47366;51.916;4.574;2023-03-19T13:12:18;101610.19;;;13.09;80.46
61506;BME280;47366;51.916;4.574;2023-03-19T13:18:19;101621.91;;;12.80;80.11
61506;BME280;47366;51.916;4.574;2023-03-19T13:20:57;101622.09;;;12.77;80.49
61506;BME280;47366;51.916;4.574;2023-03-19T13:23:30;101617.72;;;12.74;80.78
61506;BME280;47366;51.916;4.574;2023-03-19T13:26:00;101619.44;;;12.75;81.41
61506;BME280;47366;51.916;4.574;2023-03-19T13:28:29;101620.50;;;12.72;80.90
61506;BME280;47366;51.916;4.574;2023-03-19T13:31:06;101609.56;;;12.74;81.15
61506;BME280;47366;51.916;4.574;2023-03-19T13:33:35;101609.63;;;12.72;81.32
61506;BME280;47366;51.916;4.574;2023-03-19T13:36:06;101618.75;;;12.71;80.84
61506;BME280;47366;51.916;4.574;2023-03-19T13:38:48;101619.09;;;12.65;80.64
61506;BME280;47366;51.916;4.574;2023-03-19T13:44:00;101616.50;;;12.48;81.08
61506;BME280;47366;51.916;4.574;2023-03-19T13:46:42;101627.19;;;12.51;81.45
61506;BME280;47366;51.916;4.574;2023-03-19T13:51:46;101622.72;;;12.50;80.86
61506;BME280;47366;51.916;4.574;2023-03-19T13:59:36;101637.69;;;12.41;81.26
61506;BME280;47366;51.916;4.574;2023-03-19T14:04:51;101631.13;;;12.29;81.48
61506;BME280;47366;51.916;4.574;2023-03-19T14:07:23;101642.09;;;12.28;81.37
61506;BME280;47366;51.916;4.574;2023-03-19T14:17:25;101650.81;;;12.17;82.23
61506;BME280;47366;51.916;4.574;2023-03-19T14:19:52;101649.22;;;12.13;82.57
61506;BME280;47366;51.916;4.574;2023-03-19T14:22:30;101651.44;;;12.06;82.61
61506;BME280;47366;51.916;4.574;2023-03-19T14:25:24;101664.28;;;12.03;82.79
61506;BME280;47366;51.916;4.574;2023-03-19T14:27:56;101662.00;;;11.95;83.18
61506;BME280;47366;51.916;4.574;2023-03-19T14:30:38;101656.81;;;11.90;83.40
61506;BME280;47366;51.916;4.574;2023-03-19T14:33:11;101647.00;;;11.88;83.41
61506;BME280;47366;51.916;4.574;2023-03-19T14:35:40;101652.00;;;11.96;83.53
61506;BME280;47366;51.916;4.574;2023-03-19T14:38:18;101653.91;;;11.94;83.30